CYTE

Cape Dorset Airport

Cape Dorset, Canada
METAR CYTE 250024Z AUTO 22011G17KT 6SM -SN OVC025 M13/M15 A2987 RMK SLP123
Observed Flight Rules
Apr-25 @ 00:24 UTC (7 minutes ago) Marginal Visual Flight Rules
Wind Visibility Clouds Conditions
220° at 11 knots
 Gusting to 17 knots
6 miles
  • Overcast at 2,500' AGL
  • Light Snow
Temperatures Readings
Current -13°C / 9°F
Dewpoint -15°C / 5°F
Humidity 85%
Altimeter 29.87" Hg
Pressure 1012.3 hPa
Elevation 47
METAR CYTE 250024Z AUTO 22011G17KT 6SM -SN OVC025 M13/M15 A2987 RMK SLP123
Observed Flight Rules
Apr-25 @ 00:24 UTC
(7 minutes ago)
MVFR
Wind Visibility
220° at 11 knots
 Gusting to 17 knots
6 miles
Clouds
  • Overcast at 2,500' AGL
Conditions
  • Light Snow
Temperature Dewpoint
-13°C / 9°F -15°C / 5°F
Humidity Altimeter Pressure
85% 29.87" Hg 1012.3 hPa